Aérodrome :
LOGIN :

S'inscrire | Disclaimer

   EN    FR    IT 

 










Légende :    VFR   VFR Marginal   IFR   IFR Intensif   IFR Très Intensif
Visi : 
Plafond : 
>= 8 km
>= 3000ft
5 à 8 km
1000 à 3000 ft
1500m à 5 km
500 à 1000 ft
800 à 1500m
200 à 500 ft
< 800m
< 200 ft
Symboles :   Orages  Brouillard  Fortes neiges  Fortes précipitations  Vent > 20 kt
SIGMETs :   Divers  Orages  Givrage  Turbulence  Onde Orograph.  Cendres Volcan.







- Altitude de l'aérodrome : 238 ft
- Code IATA : FAB
- Voir les cartes d'approche


EGLF - Farnborough

DERNIER METAR :
  • 162250Z AUTO 17006KT 9999 OVC047/// 14/10 Q1018

METARs EXPIRÉS :
  • 162220Z AUTO 17006KT 9999 FEW041/// OVC047/// 14/10 Q1018
  • 162150Z AUTO 17007KT 9999 OVC043/// 14/10 Q1018
  • 162120Z AUTO 17006KT 9999 FEW039/// BKN049/// 14/10 Q1018
  • 162050Z AUTO 20008KT 9999 NCD 14/10 Q1018
  • 162020Z AUTO 20009KT 180V240 9999 OVC048/// 15/10 Q1018

Prévision TAF périmée.
ATIS : +44 09063 800 400 (*282)
Pas de NOTAMs connus pour ce terrain.
2 SIGMETs publiés pour la FIR London (EGTT) :
 
Onde orographique forte
EGTT SIGMET 02 VALID 162330/170330 EGRR
EGTT LONDON FIR SEV MTW FCST WI N5435 W00303 - N5442 W00123 - N5309 W00024 - N5143 W00420 - N5315 W00408 - N5435 W00303 FL030/180 STNR NC=
Onde orographique forte
EGTT SIGMET 01 VALID 162010/162330 EGRR
EGTT LONDON FIR SEV MTW FCST WI N5444 W00114 - N5306 W00010 - N5156 W00445 - N5438 W00305 - N5444 W00114 FL030/180 STNR NC=



MET'MAP, la Météo Aéronautique d'un coup d'oeil ! - Copyright ORBIFLY Décembre 2007 - Disclaimer

ORBIFLY MET'MAP TEAM :

Programmation & Développement : Alexandra Zaïnal
Conception & Développement : Baudouin d'Aumeries
Co-Programmation & Développement : Marc-Olivier Méhu
Soutien technique & logistique : Manuel Goepfert

Contact : metmap@orbifly.com




SOURCES & CREDITS :

   NOAA